Time;durP1;ratioP1;P1;durP2;ratioP2;P2;SDS_P1;SDS_P2;PMS_P1;PMS_P2;Temp;Humidity;BMP_temperature;BMP_pressure;BME280_temperature;BME280_humidity;BME280_pressure;Samples;Min_cycle;Max_cycle;Signal;HPM_P1;HPM_P2
2022/12/21 00:01:01;;;;;;;2.30;2.07;;;10.00;99.90;;;;;;480209;247;28089;-69
2022/12/21 00:03:02;;;;;;;2.90;2.60;;;10.00;99.90;;;;;;480217;247;27671;-70
2022/12/21 00:05:03;;;;;;;2.40;2.20;;;10.00;99.90;;;;;;480249;245;27888;-69
2022/12/21 00:07:05;;;;;;;2.67;2.47;;;10.00;99.90;;;;;;480261;247;28474;-69
2022/12/21 00:09:06;;;;;;;2.40;2.20;;;10.00;99.90;;;;;;480229;247;28331;-68
2022/12/21 00:11:07;;;;;;;2.50;2.30;;;10.00;99.90;;;;;;480273;247;28274;-69
2022/12/21 00:13:08;;;;;;;2.50;2.23;;;10.00;99.90;;;;;;480061;247;28341;-70
2022/12/21 00:15:10;;;;;;;3.40;2.20;;;10.00;99.90;;;;;;480240;247;27941;-69
2022/12/21 00:17:11;;;;;;;2.93;2.20;;;10.00;99.90;;;;;;479767;247;27796;-69
2022/12/21 00:19:13;;;;;;;3.80;2.80;;;10.00;99.90;;;;;;476876;249;28097;-69
2022/12/21 00:21:17;;;;;;;2.63;2.43;;;10.00;99.90;;;;;;476913;249;28094;-69
2022/12/21 00:23:18;;;;;;;4.60;2.87;;;10.00;99.90;;;;;;476956;249;28000;-69
2022/12/21 00:25:19;;;;;;;3.90;2.73;;;10.00;99.90;;;;;;476968;249;27901;-69
2022/12/21 00:27:20;;;;;;;3.87;3.03;;;10.00;99.90;;;;;;476784;240;27989;-69
2022/12/21 00:29:22;;;;;;;5.73;2.53;;;10.00;99.90;;;;;;477928;248;27964;-69
2022/12/21 00:31:23;;;;;;;2.40;2.20;;;10.00;99.90;;;;;;476086;250;28241;-70
2022/12/21 00:33:24;;;;;;;3.53;3.23;;;10.00;99.90;;;;;;476020;250;27834;-69
2022/12/21 00:35:25;;;;;;;2.87;2.67;;;10.00;99.90;;;;;;476045;250;27723;-70
2022/12/21 00:37:27;;;;;;;3.47;2.47;;;10.00;99.90;;;;;;476114;250;28138;-69
2022/12/21 00:39:28;;;;;;;3.50;2.63;;;10.00;99.90;;;;;;476046;250;28332;-69
2022/12/21 00:41:29;;;;;;;2.90;2.60;;;10.00;99.90;;;;;;476070;250;28497;-69
2022/12/21 00:43:30;;;;;;;3.53;2.53;;;10.00;99.90;;;;;;476016;250;28523;-69
2022/12/21 00:45:32;;;;;;;3.07;2.67;;;10.00;99.90;;;;;;476068;250;28216;-69
2022/12/21 00:47:33;;;;;;;3.10;2.80;;;10.00;99.90;;;;;;476097;250;27979;-69
2022/12/21 00:49:34;;;;;;;2.67;2.47;;;10.00;99.90;;;;;;476061;250;27877;-69
2022/12/21 00:51:35;;;;;;;3.03;2.50;;;10.00;99.90;;;;;;476101;250;27782;-69
2022/12/21 00:53:37;;;;;;;2.63;2.50;;;10.00;99.90;;;;;;476098;250;27998;-69
2022/12/21 00:55:38;;;;;;;2.53;2.33;;;10.00;99.90;;;;;;476048;250;28036;-69
2022/12/21 00:57:39;;;;;;;2.13;1.93;;;10.00;99.90;;;;;;476103;249;27818;-69
2022/12/21 00:59:40;;;;;;;2.17;2.07;;;10.00;99.90;;;;;;476053;250;27827;-69
2022/12/21 01:01:42;;;;;;;2.50;2.00;;;10.00;99.90;;;;;;475190;243;28174;-70
2022/12/21 01:03:43;;;;;;;2.23;2.13;;;10.00;99.90;;;;;;472977;251;28087;-69
2022/12/21 01:05:44;;;;;;;1.97;1.87;;;10.00;99.90;;;;;;472908;251;28238;-69
2022/12/21 01:07:45;;;;;;;2.50;1.97;;;10.00;99.90;;;;;;474655;237;29174;-69
2022/12/21 01:09:47;;;;;;;2.40;1.90;;;10.00;99.90;;;;;;472931;249;28426;-69
2022/12/21 01:11:48;;;;;;;2.37;2.13;;;10.00;99.90;;;;;;472981;249;27934;-69
2022/12/21 01:13:49;;;;;;;2.40;2.07;;;10.00;99.90;;;;;;472969;249;27745;-69
2022/12/21 01:15:50;;;;;;;1.80;1.70;;;10.00;99.90;;;;;;472967;249;27767;-69
2022/12/21 01:17:52;;;;;;;1.77;1.67;;;10.00;99.90;;;;;;473000;249;27976;-69
2022/12/21 01:19:53;;;;;;;2.70;1.93;;;10.00;99.90;;;;;;472974;249;27885;-69
2022/12/21 01:21:54;;;;;;;1.80;1.70;;;10.00;99.90;;;;;;472995;249;28007;-70
2022/12/21 01:23:55;;;;;;;1.97;1.87;;;10.00;99.90;;;;;;472985;249;27474;-68
2022/12/21 01:25:57;;;;;;;1.97;1.73;;;10.10;99.90;;;;;;472953;249;27951;-69
2022/12/21 01:27:59;;;;;;;2.47;1.60;;;10.00;99.90;;;;;;473001;249;28045;-69
2022/12/21 01:29:59;;;;;;;2.00;1.80;;;10.00;99.90;;;;;;472908;249;28430;-69
2022/12/21 01:32:00;;;;;;;1.93;1.83;;;10.00;99.90;;;;;;475656;248;28394;-70
2022/12/21 01:34:02;;;;;;;1.93;1.83;;;10.00;99.90;;;;;;474232;248;28213;-69
2022/12/21 01:36:03;;;;;;;2.30;1.80;;;10.00;99.90;;;;;;470809;247;28273;-69
2022/12/21 01:38:04;;;;;;;2.20;2.10;;;10.00;99.90;;;;;;467533;253;28036;-69
2022/12/21 01:40:05;;;;;;;2.00;1.90;;;10.00;99.90;;;;;;467497;254;27881;-69
2022/12/21 01:42:07;;;;;;;1.70;1.60;;;10.00;99.90;;;;;;467523;249;27904;-71
2022/12/21 01:44:08;;;;;;;1.93;1.83;;;10.00;99.90;;;;;;467516;254;27885;-69
2022/12/21 01:46:09;;;;;;;2.20;2.00;;;10.00;99.90;;;;;;467477;254;28061;-69
2022/12/21 01:48:10;;;;;;;1.90;1.80;;;10.10;99.90;;;;;;467497;254;28327;-69
2022/12/21 01:50:12;;;;;;;1.90;1.80;;;10.00;99.90;;;;;;467480;254;28490;-69
2022/12/21 01:52:13;;;;;;;2.00;1.90;;;10.00;99.90;;;;;;467522;254;28358;-70
2022/12/21 01:54:14;;;;;;;2.23;2.10;;;10.00;99.90;;;;;;467503;254;28243;-69
2022/12/21 01:56:15;;;;;;;1.83;1.70;;;10.00;99.90;;;;;;467511;254;27999;-69
2022/12/21 01:58:17;;;;;;;3.13;1.90;;;10.00;99.90;;;;;;467518;254;28047;-69
2022/12/21 02:00:18;;;;;;;2.20;2.00;;;10.00;99.90;;;;;;467467;254;27898;-69
2022/12/21 02:02:19;;;;;;;1.87;1.77;;;10.00;99.90;;;;;;468611;248;27909;-70
2022/12/21 02:04:20;;;;;;;1.63;1.53;;;10.00;99.90;;;;;;473941;247;27944;-70
2022/12/21 02:06:22;;;;;;;1.80;1.70;;;10.00;99.90;;;;;;477072;247;27918;-69
2022/12/21 02:08:23;;;;;;;1.40;1.30;;;10.00;99.90;;;;;;478028;247;27989;-69
2022/12/21 02:10:24;;;;;;;1.70;1.60;;;10.00;99.90;;;;;;467879;247;27812;-69
2022/12/21 02:12:25;;;;;;;1.60;1.50;;;10.00;99.90;;;;;;472238;248;28837;-69
2022/12/21 02:14:27;;;;;;;1.90;1.80;;;10.00;99.90;;;;;;468930;248;29481;-69
2022/12/21 02:16:28;;;;;;;1.80;1.70;;;10.00;99.90;;;;;;479023;248;28447;-70
2022/12/21 02:18:29;;;;;;;1.93;1.80;;;10.00;99.90;;;;;;470046;248;28393;-69
2022/12/21 02:20:30;;;;;;;3.53;2.13;;;10.00;99.90;;;;;;472571;248;28023;-69
2022/12/21 02:22:32;;;;;;;1.73;1.63;;;10.00;99.90;;;;;;478721;247;28079;-69
2022/12/21 02:24:33;;;;;;;1.77;1.67;;;10.00;99.90;;;;;;468012;247;27694;-69
2022/12/21 02:26:34;;;;;;;2.00;1.67;;;10.00;99.90;;;;;;467543;254;27933;-70
2022/12/21 02:28:35;;;;;;;3.10;1.67;;;9.90;99.90;;;;;;467546;254;28012;-69
2022/12/21 02:30:37;;;;;;;1.87;1.67;;;9.90;99.90;;;;;;467519;254;27951;-69
2022/12/21 02:32:38;;;;;;;1.73;1.63;;;9.90;99.90;;;;;;467477;254;27646;-70
2022/12/21 02:34:39;;;;;;;2.90;1.70;;;10.00;99.90;;;;;;467502;254;27915;-69
2022/12/21 02:36:40;;;;;;;1.80;1.70;;;10.00;99.90;;;;;;467413;254;27615;-69
2022/12/21 02:38:42;;;;;;;1.93;1.77;;;10.00;99.90;;;;;;467532;254;27750;-69
2022/12/21 02:40:43;;;;;;;4.00;2.07;;;10.00;99.90;;;;;;467273;254;28375;-69
2022/12/21 02:45:04;;;;;;;1.90;1.80;;;9.90;99.90;;;;;;467502;254;27988;-69
2022/12/21 02:47:05;;;;;;;1.70;1.60;;;9.90;99.90;;;;;;467503;254;27654;-69
2022/12/21 02:49:06;;;;;;;1.77;1.67;;;10.00;99.90;;;;;;467512;254;28074;-69
2022/12/21 02:51:07;;;;;;;1.87;1.77;;;9.90;99.90;;;;;;467530;254;28463;-69
2022/12/21 02:53:09;;;;;;;1.73;1.63;;;9.90;99.90;;;;;;467500;254;29216;-69
2022/12/21 02:55:10;;;;;;;1.60;1.50;;;9.90;99.90;;;;;;467512;254;28211;-69
2022/12/21 02:57:11;;;;;;;1.60;1.50;;;9.90;99.90;;;;;;467426;254;28480;-69
2022/12/21 02:59:12;;;;;;;2.90;1.70;;;9.90;99.90;;;;;;467516;254;27845;-69
2022/12/21 03:01:14;;;;;;;1.87;1.63;;;9.90;99.90;;;;;;467469;254;27792;-69
2022/12/21 03:05:34;;;;;;;1.73;1.63;;;9.90;99.90;;;;;;467500;254;28246;-69
2022/12/21 03:07:35;;;;;;;1.57;1.47;;;9.90;99.90;;;;;;467470;254;28409;-70
2022/12/21 03:09:37;;;;;;;1.67;1.40;;;9.90;99.90;;;;;;467476;254;28273;-69
2022/12/21 03:11:38;;;;;;;1.60;1.50;;;9.90;99.90;;;;;;467445;254;28381;-69
2022/12/21 03:13:39;;;;;;;1.93;1.80;;;9.90;99.90;;;;;;467466;254;28341;-69
2022/12/21 03:15:40;;;;;;;1.60;1.50;;;9.90;99.90;;;;;;467161;254;28450;-69
2022/12/21 03:17:42;;;;;;;1.53;1.50;;;9.90;99.90;;;;;;467468;254;27918;-71
2022/12/21 03:19:43;;;;;;;1.53;1.53;;;9.90;99.90;;;;;;467482;254;27948;-69
2022/12/21 03:21:44;;;;;;;3.30;1.57;;;9.90;99.90;;;;;;467501;254;27929;-69
2022/12/21 03:23:45;;;;;;;1.80;1.70;;;9.90;99.90;;;;;;467484;254;27861;-69
2022/12/21 03:25:47;;;;;;;1.90;1.80;;;9.90;99.90;;;;;;467524;254;27996;-69
2022/12/21 03:27:48;;;;;;;1.97;1.80;;;9.90;99.90;;;;;;467541;254;27942;-68
2022/12/21 03:29:50;;;;;;;1.63;1.53;;;9.90;99.90;;;;;;467546;254;27938;-69
2022/12/21 03:31:50;;;;;;;1.70;1.60;;;9.90;99.90;;;;;;467510;254;27935;-69
2022/12/21 03:33:52;;;;;;;1.83;1.73;;;9.90;99.90;;;;;;467531;254;28000;-69
2022/12/21 03:35:53;;;;;;;1.80;1.70;;;9.90;99.90;;;;;;467515;254;27773;-69
2022/12/21 03:37:54;;;;;;;2.77;1.80;;;9.90;99.90;;;;;;467514;254;28388;-70
2022/12/21 03:39:56;;;;;;;1.57;1.47;;;9.80;99.90;;;;;;467539;254;27781;-69
2022/12/21 03:41:57;;;;;;;3.50;1.70;;;9.90;99.90;;;;;;467480;254;27869;-70
2022/12/21 03:43:58;;;;;;;1.50;1.40;;;9.90;99.90;;;;;;467577;254;27985;-69
2022/12/21 03:45:59;;;;;;;1.60;1.50;;;9.90;99.90;;;;;;467475;254;28018;-69
2022/12/21 03:48:00;;;;;;;1.70;1.60;;;9.90;99.90;;;;;;467488;254;28903;-69
2022/12/21 03:50:02;;;;;;;1.83;1.67;;;9.90;99.90;;;;;;467556;254;28463;-69
2022/12/21 03:52:04;;;;;;;1.70;1.60;;;9.90;99.90;;;;;;467523;254;28125;-70
2022/12/21 03:54:04;;;;;;;1.77;1.67;;;9.90;99.90;;;;;;467526;254;28339;-69
2022/12/21 03:56:06;;;;;;;1.80;1.70;;;9.90;99.90;;;;;;467506;254;27846;-68
2022/12/21 03:58:07;;;;;;;2.00;1.90;;;9.90;99.90;;;;;;467499;252;27782;-69
2022/12/21 04:00:10;;;;;;;1.90;1.80;;;9.90;99.90;;;;;;467532;254;27884;-69
2022/12/21 04:02:09;;;;;;;1.40;1.30;;;9.90;99.90;;;;;;472696;248;28107;-69
2022/12/21 04:04:10;;;;;;;1.70;1.60;;;9.90;99.90;;;;;;469068;248;27734;-69
2022/12/21 04:06:12;;;;;;;2.10;1.90;;;9.90;99.90;;;;;;475990;248;27528;-70
2022/12/21 04:08:13;;;;;;;1.80;1.70;;;9.90;99.90;;;;;;473974;247;28056;-69
2022/12/21 04:10:14;;;;;;;2.03;1.90;;;9.90;99.90;;;;;;470387;248;27923;-69
2022/12/21 04:14:35;;;;;;;3.20;1.80;;;9.90;99.90;;;;;;477411;248;28043;-69
2022/12/21 04:16:36;;;;;;;2.67;1.63;;;9.90;99.90;;;;;;479276;247;27754;-69
2022/12/21 04:20:57;;;;;;;1.80;1.70;;;9.90;99.90;;;;;;474593;248;27948;-69
2022/12/21 04:29:51;;;;;;;1.90;1.80;;;9.90;99.90;;;;;;470600;252;28454;-69
2022/12/21 04:31:52;;;;;;;1.30;1.27;;;9.90;99.90;;;;;;462832;253;28144;-69
2022/12/21 04:33:53;;;;;;;1.57;1.47;;;9.90;99.90;;;;;;474092;247;28414;-69
2022/12/21 04:38:14;;;;;;;3.10;1.73;;;9.90;99.90;;;;;;472177;248;28005;-70
2022/12/21 04:40:15;;;;;;;1.50;1.50;;;9.90;99.90;;;;;;475990;248;28042;-69
2022/12/21 04:42:17;;;;;;;1.90;1.80;;;9.90;99.90;;;;;;477537;248;27995;-69
2022/12/21 04:44:18;;;;;;;1.70;1.60;;;9.90;99.90;;;;;;477571;247;28016;-69
2022/12/21 04:46:19;;;;;;;2.00;1.90;;;9.90;99.90;;;;;;478898;247;28085;-69
2022/12/21 04:48:20;;;;;;;2.37;2.27;;;9.90;99.90;;;;;;475617;248;27998;-70
2022/12/21 04:50:22;;;;;;;1.80;1.70;;;9.90;99.90;;;;;;473050;248;27982;-69
2022/12/21 04:52:23;;;;;;;1.57;1.47;;;9.90;99.90;;;;;;476453;247;28515;-70
2022/12/21 04:54:24;;;;;;;2.10;2.00;;;9.90;99.90;;;;;;477822;247;28832;-69
2022/12/21 04:56:25;;;;;;;1.83;1.73;;;9.90;99.90;;;;;;474259;247;28377;-69
2022/12/21 04:58:27;;;;;;;1.90;1.80;;;9.90;99.90;;;;;;474916;247;28473;-69
2022/12/21 05:00:28;;;;;;;1.80;1.70;;;9.90;99.90;;;;;;467589;248;28358;-69
2022/12/21 05:02:29;;;;;;;2.10;1.90;;;9.90;99.90;;;;;;469409;248;28430;-69
2022/12/21 05:04:30;;;;;;;2.37;1.63;;;9.90;99.90;;;;;;477367;248;28040;-70
2022/12/21 05:06:32;;;;;;;1.73;1.63;;;9.90;99.90;;;;;;470018;247;27892;-69
2022/12/21 05:08:33;;;;;;;2.13;1.57;;;9.90;99.90;;;;;;469537;248;27904;-69
2022/12/21 05:10:34;;;;;;;1.63;1.53;;;9.90;99.90;;;;;;476488;248;28044;-69
2022/12/21 05:12:35;;;;;;;2.67;2.23;;;9.90;99.90;;;;;;475776;247;28081;-69
2022/12/21 05:14:37;;;;;;;1.80;1.70;;;9.90;99.90;;;;;;473803;244;27980;-71
2022/12/21 05:16:41;;;;;;;1.77;1.67;;;9.90;99.90;;;;;;476335;247;28057;-69
2022/12/21 05:18:43;;;;;;;1.70;1.60;;;9.90;99.90;;;;;;476398;244;27794;-69
2022/12/21 05:20:43;;;;;;;1.67;1.57;;;9.80;99.90;;;;;;473620;244;27906;-69
2022/12/21 05:22:46;;;;;;;1.70;1.60;;;9.80;99.90;;;;;;472022;244;28066;-69
2022/12/21 05:24:46;;;;;;;1.50;1.40;;;9.80;99.90;;;;;;473006;244;27904;-69
2022/12/21 05:26:47;;;;;;;1.97;1.77;;;9.90;99.90;;;;;;477012;248;28018;-69
2022/12/21 05:28:48;;;;;;;1.67;1.57;;;9.90;99.90;;;;;;472299;244;27943;-69
2022/12/21 05:30:50;;;;;;;2.40;2.03;;;9.90;99.90;;;;;;476990;248;27994;-69
2022/12/21 05:32:51;;;;;;;1.60;1.50;;;9.90;99.90;;;;;;473320;246;28093;-69
2022/12/21 05:34:52;;;;;;;1.63;1.50;;;9.90;99.90;;;;;;474387;247;27701;-69
2022/12/21 05:36:53;;;;;;;2.07;1.70;;;9.90;99.90;;;;;;477877;247;28108;-69
2022/12/21 05:38:55;;;;;;;1.70;1.60;;;9.90;99.90;;;;;;472014;244;27975;-69
2022/12/21 05:40:56;;;;;;;2.50;1.40;;;9.90;99.90;;;;;;468495;249;28025;-69
2022/12/21 05:42:57;;;;;;;1.67;1.57;;;9.90;99.90;;;;;;461609;249;28413;-69
2022/12/21 05:44:58;;;;;;;1.33;1.33;;;9.90;99.90;;;;;;468454;253;27962;-69
2022/12/21 05:47:00;;;;;;;1.80;1.70;;;9.90;99.90;;;;;;461888;249;28325;-70
2022/12/21 05:49:01;;;;;;;1.90;1.50;;;9.90;99.90;;;;;;468351;253;28543;-69
2022/12/21 05:51:02;;;;;;;1.60;1.50;;;9.90;99.90;;;;;;463031;249;28550;-69
2022/12/21 05:53:03;;;;;;;1.27;1.20;;;9.90;99.90;;;;;;461182;255;28290;-69
2022/12/21 05:55:05;;;;;;;1.30;1.20;;;9.90;99.90;;;;;;466421;255;28363;-69
2022/12/21 05:57:06;;;;;;;1.80;1.20;;;9.90;99.90;;;;;;466393;255;27639;-70
2022/12/21 05:59:07;;;;;;;1.57;1.47;;;9.90;99.90;;;;;;466359;255;27859;-69
2022/12/21 06:01:08;;;;;;;1.53;1.47;;;9.90;99.90;;;;;;466405;255;28010;-70
2022/12/21 06:03:10;;;;;;;1.20;1.20;;;9.90;99.90;;;;;;470505;248;27941;-68
2022/12/21 06:05:11;;;;;;;1.27;1.27;;;10.00;99.90;;;;;;466745;251;27995;-69
2022/12/21 06:07:12;;;;;;;1.50;1.40;;;10.00;99.90;;;;;;471188;251;27854;-71
2022/12/21 06:09:13;;;;;;;1.60;1.50;;;10.00;99.90;;;;;;467111;248;28038;-69
2022/12/21 06:11:15;;;;;;;1.30;1.30;;;10.00;99.90;;;;;;464529;252;28016;-69
2022/12/21 06:13:16;;;;;;;1.53;1.43;;;10.00;99.90;;;;;;469544;248;27745;-68
2022/12/21 06:15:17;;;;;;;2.00;1.50;;;9.90;99.90;;;;;;468739;249;27645;-69
2022/12/21 06:17:18;;;;;;;1.50;1.40;;;10.00;99.90;;;;;;474758;239;27888;-69
2022/12/21 06:19:20;;;;;;;1.20;1.20;;;10.00;99.90;;;;;;484864;243;28536;-69
2022/12/21 06:21:21;;;;;;;1.50;1.40;;;10.00;99.90;;;;;;475637;248;28425;-69
2022/12/21 06:23:22;;;;;;;1.80;1.70;;;10.00;99.90;;;;;;482960;244;29256;-69
2022/12/21 06:25:23;;;;;;;1.60;1.50;;;10.00;99.90;;;;;;490323;242;28376;-69
2022/12/21 06:27:25;;;;;;;1.50;1.50;;;10.00;99.90;;;;;;486059;244;27924;-69
2022/12/21 06:29:26;;;;;;;1.83;1.40;;;9.90;99.90;;;;;;490506;242;27943;-69
2022/12/21 06:31:27;;;;;;;1.40;1.27;;;9.90;99.90;;;;;;490523;242;27965;-69
2022/12/21 06:33:28;;;;;;;1.50;1.40;;;9.90;99.90;;;;;;490543;241;27838;-69
2022/12/21 06:35:30;;;;;;;1.70;1.60;;;10.00;99.90;;;;;;490581;242;28010;-69
2022/12/21 06:37:31;;;;;;;1.40;1.30;;;10.00;99.90;;;;;;489008;242;27771;-69
2022/12/21 06:39:32;;;;;;;1.13;1.13;;;10.00;99.90;;;;;;480925;247;28026;-69
2022/12/21 06:41:33;;;;;;;1.40;1.40;;;10.00;99.90;;;;;;480888;247;27961;-69
2022/12/21 06:43:35;;;;;;;1.30;1.30;;;10.00;99.90;;;;;;480884;246;27765;-70
2022/12/21 06:45:36;;;;;;;1.30;1.20;;;10.00;99.90;;;;;;480944;247;28068;-69
2022/12/21 06:47:37;;;;;;;1.87;1.77;;;10.00;99.90;;;;;;480952;247;28434;-70
2022/12/21 06:49:38;;;;;;;1.30;1.20;;;10.00;99.90;;;;;;480890;247;28368;-69
2022/12/21 06:51:40;;;;;;;1.20;1.20;;;10.00;99.90;;;;;;484771;242;28210;-70
2022/12/21 06:53:41;;;;;;;1.70;1.60;;;9.90;99.90;;;;;;485896;242;27829;-71
2022/12/21 06:55:42;;;;;;;1.40;1.40;;;10.00;99.90;;;;;;479186;242;28092;-70
2022/12/21 06:57:43;;;;;;;1.30;1.30;;;10.00;99.90;;;;;;481038;245;27970;-71
2022/12/21 06:59:45;;;;;;;1.57;1.47;;;9.90;99.90;;;;;;487174;240;28905;-69
2022/12/21 07:01:46;;;;;;;1.47;1.37;;;9.90;99.90;;;;;;477457;248;29182;-70
2022/12/21 07:03:47;;;;;;;1.50;1.40;;;10.00;99.90;;;;;;473495;248;28478;-70
2022/12/21 07:05:49;;;;;;;2.40;1.40;;;9.90;99.90;;;;;;481610;245;28073;-69
2022/12/21 07:07:50;;;;;;;1.60;1.50;;;9.90;99.90;;;;;;481962;233;28535;-70
2022/12/21 07:09:51;;;;;;;1.67;1.57;;;9.90;99.90;;;;;;484472;245;27983;-69
2022/12/21 07:11:52;;;;;;;1.63;1.53;;;9.90;99.90;;;;;;486787;243;27937;-69
2022/12/21 07:13:53;;;;;;;1.70;1.60;;;10.00;99.90;;;;;;491614;236;27832;-70
2022/12/21 07:15:55;;;;;;;1.90;1.80;;;9.90;99.90;;;;;;490356;242;27848;-70
2022/12/21 07:17:56;;;;;;;2.10;1.90;;;10.00;99.90;;;;;;479098;236;27863;-70
2022/12/21 07:19:57;;;;;;;1.63;1.53;;;9.90;99.90;;;;;;478052;249;28043;-72
2022/12/21 07:24:21;;;;;;;2.62;2.03;;;19.60;54.40;;;;;;494364;233;36003;-74
2022/12/21 07:26:22;;;;;;;2.70;2.50;;;15.70;66.40;;;;;;488518;241;29348;-75
2022/12/21 07:28:24;;;;;;;3.33;2.70;;;12.70;81.00;;;;;;491475;240;30226;-74
2022/12/21 07:30:24;;;;;;;2.67;2.47;;;11.30;88.80;;;;;;492765;236;27992;-75
2022/12/21 07:32:26;;;;;;;3.80;2.67;;;10.70;91.50;;;;;;488355;240;28114;-75
2022/12/21 07:34:27;;;;;;;2.77;2.57;;;10.40;93.30;;;;;;488554;237;28460;-73
2022/12/21 07:36:28;;;;;;;2.93;2.73;;;10.30;94.60;;;;;;489737;240;28547;-76
2022/12/21 07:38:30;;;;;;;2.87;2.43;;;10.30;95.70;;;;;;492471;240;28516;-74
2022/12/21 07:40:31;;;;;;;2.50;2.30;;;10.20;96.80;;;;;;494183;240;28485;-74
2022/12/21 07:42:32;;;;;;;2.60;2.40;;;10.20;97.60;;;;;;494101;240;28229;-74
2022/12/21 07:44:34;;;;;;;2.80;2.60;;;10.20;98.40;;;;;;494028;240;27928;-73
2022/12/21 07:46:35;;;;;;;4.37;2.73;;;10.20;99.10;;;;;;491229;237;27993;-80
2022/12/21 07:48:36;;;;;;;3.50;3.20;;;10.20;99.40;;;;;;466450;246;28656;-79
2022/12/21 07:50:37;;;;;;;3.00;2.80;;;10.20;99.90;;;;;;467510;248;28731;-80
2022/12/21 07:52:39;;;;;;;3.60;3.10;;;10.10;99.90;;;;;;466322;240;28771;-80
2022/12/21 07:54:40;;;;;;;3.00;2.80;;;10.20;99.90;;;;;;466903;248;27905;-80
2022/12/21 07:56:41;;;;;;;3.60;3.00;;;10.20;99.90;;;;;;465529;249;28171;-79
2022/12/21 07:58:42;;;;;;;3.33;2.93;;;10.20;99.90;;;;;;463866;252;28087;-78
2022/12/21 08:00:44;;;;;;;3.30;3.03;;;10.20;99.90;;;;;;463882;249;28119;-82
2022/12/21 08:02:45;;;;;;;3.17;2.87;;;10.20;99.90;;;;;;463848;249;28147;-79
2022/12/21 08:04:46;;;;;;;2.53;2.33;;;10.20;99.90;;;;;;463862;250;27846;-78
2022/12/21 08:06:47;;;;;;;2.83;2.63;;;10.20;99.90;;;;;;461053;248;28145;-78
2022/12/21 08:08:48;;;;;;;3.53;3.13;;;10.20;99.90;;;;;;471843;238;27916;-80
2022/12/21 08:10:50;;;;;;;3.80;3.50;;;10.20;99.90;;;;;;471218;248;28616;-78
2022/12/21 08:12:51;;;;;;;3.47;2.97;;;10.20;99.90;;;;;;471203;249;28745;-81
2022/12/21 08:14:52;;;;;;;3.90;2.73;;;10.20;99.90;;;;;;474906;244;28781;-78
2022/12/21 08:16:54;;;;;;;2.30;2.20;;;10.20;99.90;;;;;;461454;249;28894;-79
2022/12/21 08:18:55;;;;;;;2.93;2.73;;;10.20;99.90;;;;;;459970;255;27946;-78
2022/12/21 08:20:56;;;;;;;3.03;2.83;;;10.20;99.90;;;;;;459888;255;27725;-78
2022/12/21 08:22:57;;;;;;;3.13;2.70;;;10.20;99.90;;;;;;460086;255;28204;-77
2022/12/21 08:24:58;;;;;;;2.43;2.23;;;10.20;99.90;;;;;;460013;254;28283;-77
2022/12/21 08:27:00;;;;;;;3.03;2.80;;;10.20;99.90;;;;;;460010;255;27978;-78
2022/12/21 08:29:01;;;;;;;2.80;2.60;;;10.20;99.90;;;;;;460151;255;28198;-78
2022/12/21 08:31:02;;;;;;;3.63;3.33;;;10.20;99.90;;;;;;460076;255;28065;-78
2022/12/21 08:33:03;;;;;;;2.80;2.60;;;10.20;99.90;;;;;;460035;255;27930;-79
2022/12/21 08:35:05;;;;;;;3.90;2.90;;;10.20;99.90;;;;;;460259;255;28233;-75
2022/12/21 08:37:06;;;;;;;2.93;2.67;;;10.20;99.90;;;;;;459959;255;28772;-77
2022/12/21 08:39:07;;;;;;;2.90;2.70;;;10.20;99.90;;;;;;460006;255;28842;-77
2022/12/21 08:41:08;;;;;;;5.97;2.93;;;10.20;99.90;;;;;;460035;257;28209;-76
2022/12/21 08:43:10;;;;;;;2.77;2.57;;;10.20;99.90;;;;;;460063;254;28032;-76
2022/12/21 08:45:12;;;;;;;2.83;2.57;;;10.20;99.90;;;;;;459986;255;28168;-77
2022/12/21 08:47:12;;;;;;;3.50;2.70;;;10.20;99.90;;;;;;459990;255;27774;-77
2022/12/21 08:49:13;;;;;;;2.97;2.77;;;10.20;99.90;;;;;;468409;246;28018;-78
2022/12/21 08:51:15;;;;;;;2.97;2.77;;;10.20;99.90;;;;;;471929;248;27952;-78
2022/12/21 08:53:16;;;;;;;3.00;2.70;;;10.20;99.90;;;;;;472098;248;27950;-80
2022/12/21 08:55:17;;;;;;;3.27;2.20;;;10.20;99.90;;;;;;476166;240;28037;-82
2022/12/21 08:57:19;;;;;;;3.30;3.00;;;10.30;99.90;;;;;;476124;240;27940;-79
2022/12/21 08:59:21;;;;;;;2.80;2.53;;;10.30;99.90;;;;;;476117;240;27862;-79
2022/12/21 09:01:22;;;;;;;2.60;2.40;;;10.30;99.90;;;;;;476388;246;27917;-76
2022/12/21 09:03:23;;;;;;;5.07;2.80;;;10.20;99.90;;;;;;467949;244;28563;-77
2022/12/21 09:05:24;;;;;;;2.50;2.40;;;10.20;99.90;;;;;;476283;240;28558;-77
2022/12/21 09:07:26;;;;;;;4.43;2.93;;;10.30;99.90;;;;;;465769;250;28659;-78
2022/12/21 09:09:27;;;;;;;3.30;2.33;;;10.30;99.90;;;;;;471750;248;28015;-76
2022/12/21 09:11:28;;;;;;;4.57;2.90;;;10.30;99.90;;;;;;469079;249;27911;-79
2022/12/21 09:13:29;;;;;;;2.90;2.40;;;10.40;99.90;;;;;;469060;249;27945;-79
2022/12/21 09:15:31;;;;;;;2.83;2.63;;;10.40;99.90;;;;;;468967;250;28139;-82
2022/12/21 09:17:32;;;;;;;2.97;2.20;;;10.40;99.90;;;;;;469144;248;28016;-77
2022/12/21 09:19:33;;;;;;;2.30;2.20;;;10.40;99.90;;;;;;469039;248;28201;-78
2022/12/21 09:21:34;;;;;;;2.87;2.57;;;10.40;99.90;;;;;;469134;249;27808;-77
2022/12/21 09:23:36;;;;;;;2.63;2.43;;;10.40;99.90;;;;;;469073;249;28075;-77
2022/12/21 09:25:37;;;;;;;4.20;2.27;;;10.40;99.90;;;;;;469044;249;27757;-78
2022/12/21 09:27:38;;;;;;;2.23;2.13;;;10.50;99.90;;;;;;469092;249;28871;-77
2022/12/21 09:29:39;;;;;;;3.33;2.23;;;10.40;99.90;;;;;;469065;248;29134;-77
2022/12/21 09:31:41;;;;;;;2.10;2.00;;;10.50;99.90;;;;;;469079;250;28443;-77
2022/12/21 09:33:42;;;;;;;2.70;2.50;;;10.60;99.90;;;;;;469004;250;28011;-77
2022/12/21 09:35:43;;;;;;;2.50;2.20;;;10.60;99.90;;;;;;468725;248;27808;-77
2022/12/21 09:37:44;;;;;;;2.50;2.30;;;10.50;99.90;;;;;;469050;248;27968;-75
2022/12/21 09:39:46;;;;;;;2.73;2.53;;;10.50;99.90;;;;;;468989;250;28115;-77
2022/12/21 09:41:47;;;;;;;3.27;2.97;;;10.50;99.90;;;;;;469113;249;28097;-79
2022/12/21 09:43:48;;;;;;;2.20;2.10;;;10.50;99.90;;;;;;469016;249;27922;-79
2022/12/21 09:45:49;;;;;;;11.30;2.70;;;10.50;99.90;;;;;;469051;250;28125;-78
2022/12/21 09:47:53;;;;;;;3.73;2.70;;;10.50;99.90;;;;;;469003;249;27854;-77
2022/12/21 09:49:52;;;;;;;3.37;2.40;;;10.40;99.90;;;;;;469809;249;28623;-77
2022/12/21 09:51:53;;;;;;;2.17;2.07;;;10.40;99.90;;;;;;469647;249;28384;-77
2022/12/21 09:53:55;;;;;;;2.13;2.03;;;10.40;99.90;;;;;;461615;249;28847;-76
2022/12/21 09:55:56;;;;;;;2.20;2.10;;;10.40;99.90;;;;;;461556;254;27946;-78
2022/12/21 09:57:57;;;;;;;2.10;2.00;;;10.40;99.90;;;;;;461574;252;28048;-78
2022/12/21 09:59:58;;;;;;;2.17;2.00;;;10.40;99.90;;;;;;461577;254;28034;-79
2022/12/21 10:01:59;;;;;;;2.43;2.23;;;10.40;99.90;;;;;;461647;249;27990;-77
2022/12/21 10:04:01;;;;;;;5.67;3.37;;;10.40;99.90;;;;;;461463;249;28329;-77
2022/12/21 10:06:02;;;;;;;3.53;2.40;;;10.40;99.90;;;;;;461632;252;28082;-77
2022/12/21 10:08:03;;;;;;;3.00;2.70;;;10.40;99.90;;;;;;461693;249;27933;-80
2022/12/21 10:10:04;;;;;;;2.33;2.13;;;10.40;99.90;;;;;;461460;254;27992;-77
2022/12/21 10:12:06;;;;;;;3.47;2.67;;;10.40;99.90;;;;;;461718;254;27598;-78
2022/12/21 10:14:07;;;;;;;7.00;5.13;;;10.40;99.90;;;;;;461750;254;28444;-77
2022/12/21 10:16:08;;;;;;;2.40;2.20;;;10.40;99.90;;;;;;461541;249;28705;-78
2022/12/21 10:18:09;;;;;;;3.37;3.07;;;10.40;99.90;;;;;;464956;249;27956;-73
2022/12/21 10:20:11;;;;;;;2.67;2.47;;;10.40;99.90;;;;;;464924;255;28126;-76
2022/12/21 10:22:12;;;;;;;4.87;4.27;;;10.40;99.90;;;;;;464840;255;27901;-73
2022/12/21 10:24:13;;;;;;;2.13;2.03;;;10.40;99.90;;;;;;464876;255;28503;-74
2022/12/21 10:26:15;;;;;;;2.80;2.60;;;10.40;99.90;;;;;;464495;255;28388;-76
2022/12/21 10:28:16;;;;;;;4.00;2.53;;;10.40;99.90;;;;;;462316;257;27880;-75
2022/12/21 10:30:17;;;;;;;2.40;2.30;;;10.40;99.90;;;;;;462673;255;28163;-76
2022/12/21 10:32:18;;;;;;;2.30;2.20;;;10.40;99.90;;;;;;445939;266;28052;-74
2022/12/21 10:34:19;;;;;;;2.70;2.00;;;10.40;99.90;;;;;;462264;257;28019;-75
2022/12/21 10:36:22;;;;;;;2.13;2.03;;;10.40;99.90;;;;;;462711;255;28165;-75
2022/12/21 10:38:22;;;;;;;2.67;2.30;;;10.40;99.90;;;;;;445885;266;27913;-73
2022/12/21 10:40:23;;;;;;;2.30;2.20;;;10.40;99.90;;;;;;462237;257;28165;-76
2022/12/21 10:42:24;;;;;;;2.73;2.50;;;10.40;99.90;;;;;;462720;257;28042;-74
2022/12/21 10:44:26;;;;;;;2.27;2.17;;;10.40;99.90;;;;;;445934;265;27914;-75
2022/12/21 10:46:27;;;;;;;2.70;2.50;;;10.40;99.90;;;;;;462267;251;28893;-74
2022/12/21 10:48:28;;;;;;;2.93;2.60;;;10.40;99.90;;;;;;462648;255;28476;-75
2022/12/21 10:50:29;;;;;;;3.13;2.87;;;10.40;99.90;;;;;;445946;265;28573;-74
2022/12/21 10:52:31;;;;;;;3.10;2.80;;;10.50;99.90;;;;;;462277;255;28386;-74
2022/12/21 10:54:32;;;;;;;3.63;3.33;;;10.40;99.90;;;;;;462668;257;28057;-74